createdAt,value
2022-07-29T00:00:23.866Z,20.90
2022-07-29T00:02:53.301Z,20.90
2022-07-29T00:05:21.322Z,20.80
2022-07-29T00:07:49.365Z,20.80
2022-07-29T00:10:17.370Z,20.80
2022-07-29T00:12:45.407Z,20.80
2022-07-29T00:15:13.414Z,20.90
2022-07-29T00:17:41.654Z,20.90
2022-07-29T00:20:12.151Z,20.90
2022-07-29T00:22:40.766Z,20.80
2022-07-29T00:25:09.725Z,20.90
2022-07-29T00:27:38.604Z,20.90
2022-07-29T00:30:08.467Z,20.90
2022-07-29T00:32:36.722Z,21.00
2022-07-29T00:35:22.599Z,21.00
2022-07-29T00:37:52.031Z,21.00
2022-07-29T00:40:20.051Z,21.00
2022-07-29T00:42:52.448Z,21.00
2022-07-29T00:45:21.126Z,21.10
2022-07-29T00:47:49.522Z,21.00
2022-07-29T00:50:17.887Z,21.00
2022-07-29T00:52:46.232Z,21.00
2022-07-29T00:55:17.548Z,20.90
2022-07-29T00:57:46.558Z,21.00
2022-07-29T01:00:18.254Z,21.00
2022-07-29T01:02:49.127Z,21.00
2022-07-29T01:05:19.938Z,21.00
2022-07-29T01:07:50.496Z,21.10
2022-07-29T01:10:21.975Z,21.10
2022-07-29T01:12:51.982Z,21.00
2022-07-29T01:15:20.120Z,21.10
2022-07-29T01:17:53.989Z,21.00
2022-07-29T01:20:31.943Z,21.00
2022-07-29T01:23:38.040Z,20.80
2022-07-29T01:26:30.212Z,20.70
2022-07-29T01:29:07.689Z,20.60
2022-07-29T01:31:58.467Z,20.70
2022-07-29T01:34:33.243Z,20.60
2022-07-29T01:37:09.716Z,20.40
2022-07-29T01:39:40.562Z,20.30
2022-07-29T01:42:14.697Z,20.20
2022-07-29T01:44:50.525Z,20.10
2022-07-29T01:47:23.400Z,20.00
2022-07-29T01:49:55.011Z,19.90
2022-07-29T01:52:29.625Z,19.90
2022-07-29T01:55:00.604Z,19.80
2022-07-29T01:57:33.412Z,19.80
2022-07-29T02:00:05.891Z,19.80
2022-07-29T02:02:37.324Z,19.70
2022-07-29T02:05:06.280Z,19.60
2022-07-29T02:07:35.766Z,19.50
2022-07-29T02:10:06.421Z,19.40
2022-07-29T02:12:36.118Z,19.30
2022-07-29T02:15:07.832Z,19.30
2022-07-29T02:17:52.021Z,19.20
2022-07-29T02:20:20.551Z,19.20
2022-07-29T02:22:50.647Z,19.20
2022-07-29T02:25:20.095Z,19.10
2022-07-29T02:27:50.340Z,19.10
2022-07-29T02:30:20.431Z,19.10
2022-07-29T02:32:50.134Z,19.20
2022-07-29T02:35:18.876Z,19.20
2022-07-29T02:38:09.093Z,19.30
2022-07-29T02:40:40.447Z,19.30
2022-07-29T02:43:09.490Z,19.30
2022-07-29T02:45:39.477Z,19.20
2022-07-29T02:48:12.147Z,19.20
2022-07-29T02:50:46.447Z,19.20
2022-07-29T02:53:19.785Z,19.20
2022-07-29T02:55:51.392Z,19.20
2022-07-29T02:58:29.394Z,19.20
2022-07-29T03:01:01.680Z,19.20
2022-07-29T03:03:33.446Z,19.20
2022-07-29T03:06:03.436Z,19.20
2022-07-29T03:08:32.054Z,19.20
2022-07-29T03:11:00.851Z,19.20
2022-07-29T03:13:29.969Z,19.30
2022-07-29T03:16:01.575Z,19.30
2022-07-29T03:18:30.066Z,19.30
2022-07-29T03:20:58.112Z,19.30
2022-07-29T03:23:28.806Z,19.30
2022-07-29T03:26:03.251Z,19.30
2022-07-29T03:28:31.886Z,19.30
2022-07-29T03:31:02.026Z,19.30
2022-07-29T03:33:31.318Z,19.20
2022-07-29T03:35:59.402Z,19.20
2022-07-29T03:38:31.351Z,19.10
2022-07-29T03:41:03.665Z,19.20
2022-07-29T03:43:34.155Z,19.30
2022-07-29T03:46:06.170Z,19.30
2022-07-29T03:48:39.357Z,19.20
2022-07-29T03:51:07.682Z,19.20
2022-07-29T03:53:37.558Z,19.20
2022-07-29T03:56:07.041Z,19.20
2022-07-29T03:58:36.072Z,19.30
2022-07-29T04:01:05.477Z,19.30
2022-07-29T04:03:33.549Z,19.40
2022-07-29T04:06:04.413Z,19.40
2022-07-29T04:08:32.397Z,19.30
2022-07-29T04:11:00.556Z,19.40
2022-07-29T04:13:28.513Z,19.40
2022-07-29T04:15:56.697Z,19.40
2022-07-29T04:18:26.153Z,19.30
2022-07-29T04:20:54.154Z,19.30
2022-07-29T04:23:22.152Z,19.20
2022-07-29T04:25:50.303Z,19.20
2022-07-29T04:28:18.280Z,19.20
2022-07-29T04:30:46.358Z,19.30
2022-07-29T04:33:14.395Z,19.30
2022-07-29T04:35:50.058Z,19.40
2022-07-29T04:38:20.660Z,19.50
2022-07-29T04:40:49.815Z,19.50
2022-07-29T04:43:22.503Z,19.50
2022-07-29T04:45:51.398Z,19.60
2022-07-29T04:48:19.485Z,19.60
2022-07-29T04:50:48.843Z,19.70
2022-07-29T04:53:16.834Z,19.70
2022-07-29T04:55:45.759Z,19.80
2022-07-29T04:58:13.864Z,19.90
2022-07-29T05:00:42.601Z,19.90
2022-07-29T05:03:10.755Z,20.00
2022-07-29T05:05:38.788Z,20.10
2022-07-29T05:08:08.190Z,20.10
2022-07-29T05:10:39.000Z,20.10
2022-07-29T05:13:07.797Z,20.10
2022-07-29T05:15:36.578Z,20.20
2022-07-29T05:18:04.987Z,20.20
2022-07-29T05:20:33.943Z,20.20
2022-07-29T05:23:03.748Z,20.30
2022-07-29T05:25:43.012Z,20.30
2022-07-29T05:28:12.667Z,20.30
2022-07-29T05:30:40.883Z,20.30
2022-07-29T05:33:08.912Z,20.40
2022-07-29T05:36:00.290Z,20.40
2022-07-29T05:38:29.174Z,20.40
2022-07-29T05:41:00.587Z,20.40
2022-07-29T05:43:29.231Z,20.50
2022-07-29T05:45:57.355Z,20.50
2022-07-29T05:48:25.573Z,20.50
2022-07-29T05:50:53.685Z,20.60
2022-07-29T05:53:21.787Z,20.60
2022-07-29T05:55:50.276Z,20.60
2022-07-29T05:58:19.633Z,20.60
2022-07-29T06:00:47.985Z,20.70
2022-07-29T06:03:15.980Z,20.70
2022-07-29T06:05:44.047Z,20.80
2022-07-29T06:08:12.054Z,20.80
2022-07-29T06:10:40.205Z,20.90
2022-07-29T06:13:08.241Z,20.90
2022-07-29T06:15:37.666Z,21.00
2022-07-29T06:18:08.558Z,21.00
2022-07-29T06:20:37.402Z,21.00
2022-07-29T06:23:05.787Z,21.10
2022-07-29T06:25:35.713Z,21.20
2022-07-29T06:28:03.871Z,21.10
2022-07-29T06:30:31.925Z,21.10
2022-07-29T06:33:02.841Z,21.10
2022-07-29T06:35:41.305Z,21.20
2022-07-29T06:38:30.060Z,21.20
2022-07-29T06:41:08.584Z,21.30
2022-07-29T06:43:48.837Z,21.40
2022-07-29T06:46:20.578Z,21.50
2022-07-29T06:48:50.625Z,21.60
2022-07-29T06:51:22.107Z,21.60
2022-07-29T06:54:00.119Z,21.70
2022-07-29T06:56:32.302Z,21.70
2022-07-29T06:59:06.507Z,21.70
2022-07-29T07:01:34.556Z,21.80
2022-07-29T07:04:03.924Z,21.80
2022-07-29T07:06:31.964Z,21.90
2022-07-29T07:09:00.036Z,22.00
2022-07-29T07:11:28.051Z,22.10
2022-07-29T07:14:00.663Z,22.10
2022-07-29T07:16:30.950Z,22.20
2022-07-29T07:18:58.982Z,22.20
2022-07-29T07:21:30.187Z,22.30
2022-07-29T07:23:58.923Z,22.30
2022-07-29T07:26:27.122Z,22.30
2022-07-29T07:28:55.420Z,22.40
2022-07-29T07:31:23.667Z,22.40
2022-07-29T07:33:52.583Z,22.50
2022-07-29T07:36:20.606Z,22.50
2022-07-29T07:38:50.036Z,22.60
2022-07-29T07:41:18.049Z,22.60
2022-07-29T07:43:45.999Z,22.60
2022-07-29T07:46:14.170Z,22.50
2022-07-29T07:48:42.313Z,22.60
2022-07-29T07:51:10.370Z,22.50
2022-07-29T07:53:38.368Z,22.50
2022-07-29T07:56:10.821Z,22.50
2022-07-29T07:58:39.950Z,22.50
2022-07-29T08:01:08.146Z,22.50
2022-07-29T08:03:36.333Z,22.50
2022-07-29T08:06:04.796Z,22.50
2022-07-29T08:08:32.813Z,22.40
2022-07-29T08:11:06.870Z,22.30
2022-07-29T08:13:39.429Z,22.30
2022-07-29T08:16:13.965Z,22.30
2022-07-29T08:18:43.987Z,22.30
2022-07-29T08:21:15.241Z,22.30
2022-07-29T08:23:57.616Z,22.30
2022-07-29T08:26:27.997Z,22.40
2022-07-29T08:28:57.623Z,22.50
2022-07-29T08:31:26.024Z,22.50
2022-07-29T08:33:54.435Z,22.50
2022-07-29T08:36:23.123Z,22.60
2022-07-29T08:38:51.893Z,22.60
2022-07-29T08:41:20.725Z,22.70
2022-07-29T08:43:48.912Z,22.80
2022-07-29T08:46:19.043Z,22.90
2022-07-29T08:48:47.436Z,23.00
2022-07-29T08:51:17.210Z,23.10
2022-07-29T08:53:46.377Z,23.20
2022-07-29T08:56:15.672Z,23.40
2022-07-29T08:58:46.851Z,23.50
2022-07-29T09:01:36.049Z,23.70
2022-07-29T09:04:07.962Z,23.80
2022-07-29T09:06:39.279Z,23.80
2022-07-29T09:09:09.308Z,23.90
2022-07-29T09:11:37.564Z,24.00
2022-07-29T09:14:05.684Z,24.00
2022-07-29T09:16:57.922Z,24.10
2022-07-29T09:19:29.574Z,24.10
2022-07-29T09:22:00.594Z,24.30
2022-07-29T09:24:41.775Z,24.40
2022-07-29T09:27:20.985Z,24.50
2022-07-29T09:29:49.563Z,24.60
2022-07-29T09:32:18.924Z,24.70
2022-07-29T09:34:46.987Z,24.90
2022-07-29T09:37:28.426Z,25.00
2022-07-29T09:39:56.670Z,25.10
2022-07-29T09:42:30.786Z,25.20
2022-07-29T09:44:58.868Z,25.30
2022-07-29T09:47:43.234Z,25.40
2022-07-29T09:50:11.266Z,25.60
2022-07-29T09:52:48.492Z,25.70
2022-07-29T09:55:18.428Z,25.90
2022-07-29T09:57:48.520Z,26.00
2022-07-29T10:00:19.896Z,26.00
2022-07-29T10:02:49.522Z,26.00
2022-07-29T10:05:23.019Z,26.00
2022-07-29T10:07:54.305Z,26.10
2022-07-29T10:10:27.084Z,26.10
2022-07-29T10:12:59.030Z,26.20
2022-07-29T10:15:32.892Z,26.30
2022-07-29T10:18:02.287Z,26.30
2022-07-29T10:20:30.580Z,26.30
2022-07-29T10:22:59.014Z,26.40
2022-07-29T10:25:29.952Z,26.40
2022-07-29T10:27:58.005Z,26.50
2022-07-29T10:30:27.599Z,26.50
2022-07-29T10:33:18.001Z,26.60
2022-07-29T10:36:17.423Z,26.70
2022-07-29T10:38:53.917Z,26.90
2022-07-29T10:41:44.689Z,27.10
2022-07-29T10:44:19.368Z,27.20
2022-07-29T10:46:51.533Z,27.30
2022-07-29T10:49:25.026Z,27.50
2022-07-29T10:52:12.379Z,27.50
2022-07-29T10:54:44.135Z,27.50
2022-07-29T10:57:16.889Z,27.60
2022-07-29T10:59:46.353Z,27.70
2022-07-29T11:02:46.435Z,27.80
2022-07-29T11:05:18.747Z,27.80
2022-07-29T11:08:26.286Z,27.80
2022-07-29T11:11:37.787Z,28.00
2022-07-29T11:14:06.070Z,28.00
2022-07-29T11:17:06.312Z,28.00
2022-07-29T11:19:34.943Z,28.00
2022-07-29T11:22:09.626Z,28.00
2022-07-29T11:24:37.833Z,27.90
2022-07-29T11:27:21.016Z,27.90
2022-07-29T11:29:54.705Z,27.80
2022-07-29T11:32:25.235Z,27.60
2022-07-29T11:35:17.139Z,27.50
2022-07-29T11:37:52.385Z,27.30
2022-07-29T11:40:23.505Z,27.10
2022-07-29T11:42:52.630Z,27.00
2022-07-29T11:45:43.337Z,26.80
2022-07-29T11:48:31.997Z,26.60
2022-07-29T11:51:01.497Z,26.40
2022-07-29T11:53:33.310Z,26.30
2022-07-29T11:56:03.551Z,26.20
2022-07-29T11:58:32.464Z,26.10
2022-07-29T12:01:04.891Z,25.90
2022-07-29T12:03:36.008Z,25.70
2022-07-29T12:06:07.530Z,25.60
2022-07-29T12:08:43.524Z,25.30
2022-07-29T12:11:20.479Z,25.10
2022-07-29T12:13:49.981Z,24.90
2022-07-29T12:16:25.766Z,24.80
2022-07-29T12:19:00.485Z,24.50
2022-07-29T12:21:30.455Z,24.20
2022-07-29T12:24:08.871Z,23.80
2022-07-29T12:26:37.678Z,23.60
2022-07-29T12:29:05.839Z,23.40
2022-07-29T12:31:43.236Z,23.20
2022-07-29T12:34:13.703Z,23.10
2022-07-29T12:36:42.802Z,23.10
2022-07-29T12:39:13.403Z,23.10
2022-07-29T12:41:41.445Z,23.00
2022-07-29T12:44:09.546Z,23.10
2022-07-29T12:46:37.646Z,23.10
2022-07-29T12:49:07.680Z,23.10
2022-07-29T12:51:38.059Z,23.20
2022-07-29T12:54:08.427Z,23.20
2022-07-29T12:56:45.556Z,23.10
2022-07-29T12:59:15.687Z,23.10
2022-07-29T13:01:43.978Z,23.00
2022-07-29T13:04:12.115Z,22.90
2022-07-29T13:06:42.549Z,22.80
2022-07-29T13:09:16.210Z,22.60
2022-07-29T13:11:48.734Z,22.50
2022-07-29T13:14:32.019Z,22.30
2022-07-29T13:17:06.305Z,22.20
2022-07-29T13:19:41.309Z,22.10
2022-07-29T13:22:10.237Z,21.90
2022-07-29T13:24:50.294Z,21.80
2022-07-29T13:27:20.197Z,21.70
2022-07-29T13:29:49.676Z,21.60
2022-07-29T13:32:17.767Z,21.50
2022-07-29T13:34:45.684Z,21.40
2022-07-29T13:37:13.740Z,21.30
2022-07-29T13:39:41.811Z,21.40
2022-07-29T13:42:22.258Z,21.40
2022-07-29T13:44:51.782Z,21.40
2022-07-29T13:47:19.813Z,21.50
2022-07-29T13:49:47.884Z,21.60
2022-07-29T13:52:16.509Z,21.60
2022-07-29T13:54:44.548Z,21.70
2022-07-29T13:57:13.390Z,21.70
2022-07-29T13:59:43.891Z,21.70
2022-07-29T14:02:13.223Z,21.70
2022-07-29T14:04:43.788Z,21.70
2022-07-29T14:07:12.024Z,21.60
2022-07-29T14:09:44.500Z,21.70
2022-07-29T14:12:12.870Z,21.70
2022-07-29T14:14:42.498Z,21.70
2022-07-29T14:17:11.442Z,21.80
2022-07-29T14:19:39.875Z,21.80
2022-07-29T14:22:09.382Z,21.70
2022-07-29T14:24:37.829Z,21.70
2022-07-29T14:27:06.778Z,21.70
2022-07-29T14:29:37.955Z,21.70
2022-07-29T14:32:08.726Z,21.60
2022-07-29T14:34:37.598Z,21.60
2022-07-29T14:37:07.272Z,21.60
2022-07-29T14:39:39.514Z,21.60
2022-07-29T14:42:12.559Z,21.60
2022-07-29T14:44:42.079Z,21.50
2022-07-29T14:47:11.665Z,21.50
2022-07-29T14:49:39.742Z,21.40
2022-07-29T14:52:07.751Z,21.40
2022-07-29T14:54:35.831Z,21.40
2022-07-29T14:57:03.801Z,21.40
2022-07-29T14:59:31.824Z,21.40
2022-07-29T15:02:00.079Z,21.40
2022-07-29T15:04:29.707Z,21.40
2022-07-29T15:06:57.693Z,21.40
2022-07-29T15:09:25.771Z,21.40
2022-07-29T15:11:53.796Z,21.40
2022-07-29T15:14:21.801Z,21.40
2022-07-29T15:16:49.845Z,21.50
2022-07-29T15:19:20.724Z,21.40
2022-07-29T15:21:50.106Z,21.40
2022-07-29T15:24:19.908Z,21.40
2022-07-29T15:26:48.877Z,21.30
2022-07-29T15:29:17.320Z,21.30
2022-07-29T15:31:45.588Z,21.30
2022-07-29T15:34:13.683Z,21.30
2022-07-29T15:36:51.913Z,21.20
2022-07-29T15:39:23.619Z,21.10
2022-07-29T15:41:52.066Z,21.10
2022-07-29T15:44:21.029Z,21.10
2022-07-29T15:47:04.937Z,21.00
2022-07-29T15:49:48.725Z,21.00
2022-07-29T15:52:25.483Z,20.90
2022-07-29T15:54:57.034Z,20.80
2022-07-29T15:57:25.783Z,20.80
2022-07-29T15:59:54.060Z,20.80
2022-07-29T16:02:22.157Z,20.90
2022-07-29T16:04:50.213Z,20.90
2022-07-29T16:07:18.235Z,20.90
2022-07-29T16:09:50.869Z,21.00
2022-07-29T16:12:22.496Z,21.00
2022-07-29T16:14:51.935Z,20.90
2022-07-29T16:17:20.380Z,21.00
2022-07-29T16:19:49.348Z,21.00
2022-07-29T16:22:17.329Z,21.00
2022-07-29T16:24:45.427Z,21.00
2022-07-29T16:27:13.442Z,20.90
2022-07-29T16:29:42.828Z,20.90
2022-07-29T16:32:10.875Z,20.90
2022-07-29T16:34:38.990Z,20.90
2022-07-29T16:37:06.979Z,20.90
2022-07-29T16:39:34.953Z,20.90
2022-07-29T16:42:05.150Z,20.90
2022-07-29T16:44:34.885Z,20.90
2022-07-29T16:47:05.483Z,20.90
2022-07-29T16:49:33.597Z,20.90
2022-07-29T16:52:01.908Z,20.90
2022-07-29T16:54:29.977Z,20.80
2022-07-29T16:57:00.365Z,20.80
2022-07-29T16:59:29.221Z,20.80
2022-07-29T17:01:57.802Z,20.80
2022-07-29T17:04:28.674Z,20.80
2022-07-29T17:06:56.983Z,20.80
2022-07-29T17:09:26.653Z,20.80
2022-07-29T17:11:55.804Z,20.70
2022-07-29T17:14:25.549Z,20.60
2022-07-29T17:17:00.574Z,20.50
2022-07-29T17:19:33.591Z,20.50
2022-07-29T17:22:11.676Z,20.50
2022-07-29T17:24:42.724Z,20.40
2022-07-29T17:27:10.892Z,20.50
2022-07-29T17:29:39.258Z,20.60
2022-07-29T17:32:08.931Z,20.60
2022-07-29T17:34:38.837Z,20.60
2022-07-29T17:37:08.285Z,20.60
2022-07-29T17:39:36.735Z,20.60
2022-07-29T17:42:05.402Z,20.60
2022-07-29T17:44:36.210Z,20.70
2022-07-29T17:47:04.921Z,20.70
2022-07-29T17:49:33.347Z,20.80
2022-07-29T17:52:06.254Z,20.80
2022-07-29T17:54:34.380Z,20.80
2022-07-29T17:57:02.437Z,20.70
2022-07-29T17:59:30.532Z,20.60
2022-07-29T18:01:58.567Z,20.50
2022-07-29T18:04:28.775Z,20.50
2022-07-29T18:06:57.820Z,20.50
2022-07-29T18:09:27.492Z,20.50
2022-07-29T18:11:55.923Z,20.50
2022-07-29T18:14:23.884Z,20.50
2022-07-29T18:16:51.914Z,20.50
2022-07-29T18:19:19.932Z,20.40
2022-07-29T18:21:54.213Z,20.40
2022-07-29T18:24:25.431Z,20.40
2022-07-29T18:26:55.353Z,20.40
2022-07-29T18:29:23.654Z,20.30
2022-07-29T18:31:52.947Z,20.30
2022-07-29T18:34:20.954Z,20.30
2022-07-29T18:36:48.967Z,20.40
2022-07-29T18:39:20.657Z,20.40
2022-07-29T18:41:50.889Z,20.40
2022-07-29T18:44:21.942Z,20.50
2022-07-29T18:46:51.464Z,20.40
2022-07-29T18:49:19.870Z,20.40
2022-07-29T18:51:48.000Z,20.30
2022-07-29T18:54:17.429Z,20.30
2022-07-29T18:56:46.478Z,20.20
2022-07-29T18:59:16.967Z,20.10
2022-07-29T19:01:46.735Z,20.00
2022-07-29T19:04:14.803Z,20.00
2022-07-29T19:06:42.972Z,19.90
2022-07-29T19:09:11.107Z,19.90
2022-07-29T19:11:39.660Z,19.80
2022-07-29T19:14:08.049Z,19.80
2022-07-29T19:16:36.142Z,19.80
2022-07-29T19:19:07.223Z,19.80
2022-07-29T19:21:35.897Z,19.90
2022-07-29T19:24:07.810Z,19.90
2022-07-29T19:26:43.792Z,19.90
2022-07-29T19:29:11.811Z,19.90
2022-07-29T19:31:39.896Z,20.00
2022-07-29T19:34:09.385Z,19.90
2022-07-29T19:36:38.437Z,19.90
2022-07-29T19:39:06.695Z,19.90
2022-07-29T19:41:34.762Z,19.80
2022-07-29T19:44:02.764Z,19.80
2022-07-29T19:46:30.924Z,19.70
2022-07-29T19:48:59.044Z,19.70
2022-07-29T19:51:28.540Z,19.70
2022-07-29T19:53:56.553Z,19.70
2022-07-29T19:56:26.585Z,19.60
2022-07-29T19:58:54.932Z,19.50
2022-07-29T20:01:23.315Z,19.50
2022-07-29T20:03:51.347Z,19.50
2022-07-29T20:06:19.470Z,19.40
2022-07-29T20:08:48.944Z,19.40
2022-07-29T20:11:17.028Z,19.30
2022-07-29T20:13:45.009Z,19.30
2022-07-29T20:16:13.077Z,19.30
2022-07-29T20:18:41.088Z,19.30
2022-07-29T20:21:09.064Z,19.40
2022-07-29T20:23:37.405Z,19.40
2022-07-29T20:26:09.436Z,19.40
2022-07-29T20:28:40.192Z,19.50
2022-07-29T20:31:08.711Z,19.50
2022-07-29T20:33:36.811Z,19.60
2022-07-29T20:36:05.190Z,19.60
2022-07-29T20:38:33.185Z,19.70
2022-07-29T20:41:01.163Z,19.70
2022-07-29T20:43:30.708Z,19.70
2022-07-29T20:46:04.838Z,19.70
2022-07-29T20:48:32.882Z,19.80
2022-07-29T20:51:00.840Z,19.70
2022-07-29T20:53:29.060Z,19.70
2022-07-29T20:55:57.043Z,19.60
2022-07-29T20:58:25.029Z,19.60
2022-07-29T21:00:54.487Z,19.50
2022-07-29T21:03:22.564Z,19.50
2022-07-29T21:05:50.670Z,19.50
2022-07-29T21:08:18.795Z,19.40
2022-07-29T21:10:46.853Z,19.40
2022-07-29T21:13:14.896Z,19.30
2022-07-29T21:15:45.630Z,19.30
2022-07-29T21:18:27.127Z,19.30
2022-07-29T21:20:55.229Z,19.30
2022-07-29T21:23:23.320Z,19.20
2022-07-29T21:25:51.369Z,19.20
2022-07-29T21:28:27.452Z,19.20
2022-07-29T21:30:56.678Z,19.20
2022-07-29T21:33:26.540Z,19.20
2022-07-29T21:38:42.583Z,19.10
2022-07-29T21:41:12.519Z,19.20
2022-07-29T21:43:42.232Z,19.10
2022-07-29T21:46:10.551Z,19.20
2022-07-29T21:48:44.233Z,19.20
2022-07-29T21:51:12.759Z,19.20
2022-07-29T21:53:40.799Z,19.30
2022-07-29T21:56:14.693Z,19.30
2022-07-29T21:58:43.446Z,19.40
2022-07-29T22:01:11.531Z,19.40
2022-07-29T22:03:40.916Z,19.40
2022-07-29T22:06:09.078Z,19.40
2022-07-29T22:08:40.227Z,19.50
2022-07-29T22:11:08.263Z,19.50
2022-07-29T22:13:36.972Z,19.50
2022-07-29T22:16:05.510Z,19.50
2022-07-29T22:18:33.600Z,19.50
2022-07-29T22:21:02.930Z,19.50
2022-07-29T22:23:30.939Z,19.30
2022-07-29T22:25:59.061Z,19.30
2022-07-29T22:28:27.057Z,19.20
2022-07-29T22:30:55.092Z,19.30
2022-07-29T22:33:23.735Z,19.20
2022-07-29T22:35:51.724Z,19.20
2022-07-29T22:38:21.317Z,19.10
2022-07-29T22:40:51.167Z,19.10
2022-07-29T22:43:19.497Z,19.00
2022-07-29T22:45:47.571Z,19.00
2022-07-29T22:48:15.588Z,19.00
2022-07-29T22:50:43.649Z,18.90
2022-07-29T22:53:11.686Z,18.90
2022-07-29T22:55:41.078Z,18.90
2022-07-29T22:58:09.073Z,18.80
2022-07-29T23:00:37.230Z,18.80
2022-07-29T23:03:05.354Z,18.80
2022-07-29T23:05:33.585Z,18.80
2022-07-29T23:08:01.803Z,18.80
2022-07-29T23:10:30.065Z,18.70
2022-07-29T23:12:59.509Z,18.70
2022-07-29T23:15:27.679Z,18.70
2022-07-29T23:17:55.693Z,18.70
2022-07-29T23:20:23.778Z,18.60
2022-07-29T23:22:52.328Z,18.60
2022-07-29T23:25:20.771Z,18.50
2022-07-29T23:27:48.783Z,18.50
2022-07-29T23:30:18.169Z,18.50
2022-07-29T23:32:46.149Z,18.50
2022-07-29T23:35:14.166Z,18.50
2022-07-29T23:37:42.158Z,18.40
2022-07-29T23:40:14.410Z,18.40
2022-07-29T23:42:43.750Z,18.40
2022-07-29T23:45:12.414Z,18.40
2022-07-29T23:47:42.887Z,18.40
2022-07-29T23:50:13.165Z,18.30
2022-07-29T23:52:41.905Z,18.30
2022-07-29T23:55:38.255Z,18.20
2022-07-29T23:57:58.220Z,18.20
